地図

経路データ

SID SEASON NUMBER BASIN SUBBASIN NAME ISO_TIME NATURE LAT LON WMO_WIND WMO_PRES WMO_AGENCY TRACK_TYPE DIST2LAND LANDFALL IFLAG USA_AGENCY USA_ATCF_ID USA_LAT USA_LON USA_RECORD USA_STATUS USA_WIND USA_PRES USA_SSHS USA_R34_NE USA_R34_SE USA_R34_SW USA_R34_NW USA_R50_NE USA_R50_SE USA_R50_SW USA_R50_NW USA_R64_NE USA_R64_SE USA_R64_SW USA_R64_NW USA_POCI USA_ROCI USA_RMW USA_EYE TOKYO_LAT TOKYO_LON TOKYO_GRADE TOKYO_WIND TOKYO_PRES TOKYO_R50_DIR TOKYO_R50_LONG TOKYO_R50_SHORT TOKYO_R30_DIR TOKYO_R30_LONG TOKYO_R30_SHORT TOKYO_LAND CMA_LAT CMA_LON CMA_CAT CMA_WIND CMA_PRES HKO_LAT HKO_LON HKO_CAT HKO_WIND HKO_PRES NEWDELHI_LAT NEWDELHI_LON NEWDELHI_GRADE NEWDELHI_WIND NEWDELHI_PRES NEWDELHI_CI NEWDELHI_DP NEWDELHI_POCI REUNION_LAT REUNION_LON REUNION_TYPE REUNION_WIND REUNION_PRES REUNION_TNUM REUNION_CI REUNION_RMW REUNION_R34_NE REUNION_R34_SE REUNION_R34_SW REUNION_R34_NW REUNION_R50_NE REUNION_R50_SE REUNION_R50_SW REUNION_R50_NW REUNION_R64_NE REUNION_R64_SE REUNION_R64_SW REUNION_R64_NW BOM_LAT BOM_LON BOM_TYPE BOM_WIND BOM_PRES BOM_TNUM BOM_CI BOM_RMW BOM_R34_NE BOM_R34_SE BOM_R34_SW BOM_R34_NW BOM_R50_NE BOM_R50_SE BOM_R50_SW BOM_R50_NW BOM_R64_NE BOM_R64_SE BOM_R64_SW BOM_R64_NW BOM_ROCI BOM_POCI BOM_EYE BOM_POS_METHOD BOM_PRES_METHOD NADI_LAT NADI_LON NADI_CAT NADI_WIND NADI_PRES WELLINGTON_LAT WELLINGTON_LON WELLINGTON_WIND WELLINGTON_PRES DS824_LAT DS824_LON DS824_STAGE DS824_WIND DS824_PRES TD9636_LAT TD9636_LON TD9636_STAGE TD9636_WIND TD9636_PRES TD9635_LAT TD9635_LON TD9635_WIND TD9635_PRES TD9635_ROCI NEUMANN_LAT NEUMANN_LON NEUMANN_CLASS NEUMANN_WIND NEUMANN_PRES MLC_LAT MLC_LON MLC_CLASS MLC_WIND MLC_PRES USA_GUST BOM_GUST BOM_GUST_PER REUNION_GUST REUNION_GUST_PER USA_SEAHGT USA_SEARAD_NE USA_SEARAD_SE USA_SEARAD_SW USA_SEARAD_NW STORM_SPEED STORM_DIR
1879345S15060 1880 35 SI MM NOT_NAMED 1879-12-11 06:00:00 NR -15.3000 59.5000 reunion main 569 555 _____O________ -1 -15.3000 59.5000 99 9.90000 3 200
1879345S15060 1880 35 SI MM NOT_NAMED 1879-12-11 09:00:00 NR -15.4390 59.4386 main 555 534 _____P________ -1 -15.4390 59.4386 99 3 203
1879345S15060 1880 35 SI MM NOT_NAMED 1879-12-11 12:00:00 NR -15.5814 59.3782 main 534 520 _____P________ -1 -15.5814 59.3782 99 3 201
1879345S15060 1880 35 SI MM NOT_NAMED 1879-12-11 15:00:00 NR -15.7307 59.3200 main 520 499 _____P________ -1 -15.7307 59.3200 99 3 200
1879345S15060 1880 35 SI MM NOT_NAMED 1879-12-11 18:00:00 NR -15.8903 59.2650 main 499 474 _____P________ -1 -15.8903 59.2650 99 4 198
1879345S15060 1880 35 SI MM NOT_NAMED 1879-12-11 21:00:00 NR -16.0635 59.2144 main 474 464 _____P________ -1 -16.0635 59.2144 99 4 193
1879345S15060 1880 35 SI MM NOT_NAMED 1879-12-12 00:00:00 NR -16.2539 59.1693 main 453 429 _____P________ -1 -16.2539 59.1693 99 4 191
1879345S15060 1880 35 SI MM NOT_NAMED 1879-12-12 03:00:00 NR -16.4649 59.1308 main 429 408 _____P________ -1 -16.4649 59.1308 99 5 189
1879345S15060 1880 35 SI MM NOT_NAMED 1879-12-12 06:00:00 NR -16.7000 59.1000 reunion main 408 387 _____O________ -1 -16.7000 59.1000 99 9.90000 5 186
1879345S15060 1880 35 SI MM NOT_NAMED 1879-12-12 09:00:00 NR -16.9609 59.0781 main 376 356 _____P________ -1 -16.9609 59.0781 99 5 184
1879345S15060 1880 35 SI MM NOT_NAMED 1879-12-12 12:00:00 NR -17.2426 59.0665 main 356 326 _____P________ -1 -17.2426 59.0665 99 6 0
1879345S15060 1880 35 SI MM NOT_NAMED 1879-12-12 15:00:00 NR -17.5386 59.0668 main 326 296 _____P________ -1 -17.5386 59.0668 99 6 178
1879345S15060 1880 35 SI MM NOT_NAMED 1879-12-12 18:00:00 NR -17.8422 59.0805 main 296 267 _____P________ -1 -17.8422 59.0805 99 6 177
1879345S15060 1880 35 SI MM NOT_NAMED 1879-12-12 21:00:00 NR -18.1468 59.1091 main 267 240 _____P________ -1 -18.1468 59.1091 99 6 173
1879345S15060 1880 35 SI MM NOT_NAMED 1879-12-13 00:00:00 NR -18.4457 59.1542 main 246 221 _____P________ -1 -18.4457 59.1542 99 6 170
1879345S15060 1880 35 SI MM NOT_NAMED 1879-12-13 03:00:00 NR -18.7323 59.2173 main 221 207 _____P________ -1 -18.7323 59.2173 99 6 166
1879345S15060 1880 35 SI MM NOT_NAMED 1879-12-13 06:00:00 NR -19.0000 59.3000 reunion main 207 201 _____O________ -1 -19.0000 59.3000 99 9.90000 5 160
1879345S15060 1880 35 SI MM NOT_NAMED 1879-12-13 09:00:00 NR -19.2363 59.4088 main 204 199 _____P________ -1 -19.2363 59.4088 99 5 153
1879345S15060 1880 35 SI MM NOT_NAMED 1879-12-13 12:00:00 NR -19.4572 59.5396 main 198 198 _____P________ -1 -19.4572 59.5396 99 5 149
1879345S15060 1880 35 SI MM NOT_NAMED 1879-12-13 15:00:00 NR -19.6633 59.6871 main 209 209 _____P________ -1 -19.6633 59.6871 99 5 144
1879345S15060 1880 35 SI MM NOT_NAMED 1879-12-13 18:00:00 NR -19.8554 59.8465 main 213 213 _____P________ -1 -19.8554 59.8465 99 5 140
1879345S15060 1880 35 SI MM NOT_NAMED 1879-12-13 21:00:00 NR -20.0344 60.0126 main 232 230 _____P________ -1 -20.0344 60.0126 99 5 138
1879345S15060 1880 35 SI MM NOT_NAMED 1879-12-14 00:00:00 NR -20.2009 60.1803 main 250 250 _____P________ -1 -20.2009 60.1803 99 4 136
1879345S15060 1880 35 SI MM NOT_NAMED 1879-12-14 03:00:00 NR -20.3559 60.3445 main 260 260 _____P________ -1 -20.3559 60.3445 99 4 135
1879345S15060 1880 35 SI MM NOT_NAMED 1879-12-14 06:00:00 NR -20.5000 60.5000 reunion main 282 282 _____O________ -1 -20.5000 60.5000 99 9.90000 4 135
1879345S15060 1880 35 SI MM NOT_NAMED 1879-12-14 09:00:00 NR -20.6342 60.6428 main 293 293 _____P________ -1 -20.6342 60.6428 99 4 135
1879345S15060 1880 35 SI MM NOT_NAMED 1879-12-14 12:00:00 NR -20.7598 60.7735 main 317 317 _____P________ -1 -20.7598 60.7735 99 3 136
1879345S15060 1880 35 SI MM NOT_NAMED 1879-12-14 15:00:00 NR -20.8779 60.8938 main 329 329 _____P________ -1 -20.8779 60.8938 99 3 137
1879345S15060 1880 35 SI MM NOT_NAMED 1879-12-14 18:00:00 NR -20.9898 61.0054 main 341 341 _____P________ -1 -20.9898 61.0054 99 3 137
1879345S15060 1880 35 SI MM NOT_NAMED 1879-12-14 21:00:00 NR -21.0967 61.1100 main 354 354 _____P________ -1 -21.0967 61.1100 99 3 138
1879345S15060 1880 35 SI MM NOT_NAMED 1879-12-15 00:00:00 NR -21.1999 61.2095 main 367 367 _____P________ -1 -21.1999 61.2095 99 3 138
1879345S15060 1880 35 SI MM NOT_NAMED 1879-12-15 03:00:00 NR -21.3006 61.3056 main 380 380 _____P________ -1 -21.3006 61.3056 99 3 138
1879345S15060 1880 35 SI MM NOT_NAMED 1879-12-15 06:00:00 NR -21.4000 61.4000 reunion main 393 _____O________ -1 -21.4000 61.4000 99 9.90000 3 139

IBTrACS Databaseについて

本データベースは、米国NOAAが公開する1842年以降の世界の熱帯低気圧のベストトラックデータアーカイブInternational Best Track Archive for Climate Stewardship (IBTrACS)を、ウェブで閲覧しやすい形式に変換したものです。

最終更新日:2021-10-21